Time;durP1;ratioP1;P1;durP2;ratioP2;P2;SDS_P1;SDS_P2;PMS_P1;PMS_P2;Temp;Humidity;BMP_temperature;BMP_pressure;BME280_temperature;BME280_humidity;BME280_pressure;Samples;Min_cycle;Max_cycle;Signal;HPM_P1;HPM_P2
2022/01/08 00:00:55;;;;;;;0.00;0.00;;;4.70;99.90;;;;;;6209331;23;20236;-73
2022/01/08 00:03:20;;;;;;;0.00;0.00;;;4.60;99.90;;;;;;6211823;23;20012;-72
2022/01/08 00:05:48;;;;;;;0.00;0.00;;;4.70;99.90;;;;;;6211143;23;20473;-71
2022/01/08 00:08:14;;;;;;;0.00;0.00;;;4.70;99.90;;;;;;6209409;23;20024;-72
2022/01/08 00:10:40;;;;;;;0.00;0.00;;;4.70;99.90;;;;;;6211719;23;20008;-70
2022/01/08 00:13:07;;;;;;;0.00;0.00;;;4.70;99.90;;;;;;6211447;23;20014;-71
2022/01/08 00:15:34;;;;;;;0.00;0.00;;;4.70;99.90;;;;;;6211899;23;20414;-71
2022/01/08 00:18:00;;;;;;;0.00;0.00;;;4.80;99.90;;;;;;6209183;23;20020;-71
2022/01/08 00:20:27;;;;;;;0.00;0.00;;;4.80;99.90;;;;;;6209951;23;20004;-72
2022/01/08 00:22:54;;;;;;;0.00;0.00;;;4.80;99.90;;;;;;6211581;23;20016;-70
2022/01/08 00:25:20;;;;;;;0.00;0.00;;;4.80;99.90;;;;;;6211949;23;20000;-71
2022/01/08 00:27:46;;;;;;;0.00;0.00;;;4.70;99.90;;;;;;6209201;23;20448;-71
2022/01/08 00:30:13;;;;;;;0.00;0.00;;;4.50;99.90;;;;;;6212504;23;20453;-72
2022/01/08 00:32:39;;;;;;;0.00;0.00;;;4.40;99.90;;;;;;6210432;23;20083;-71
2022/01/08 00:35:07;;;;;;;0.00;0.00;;;4.30;99.90;;;;;;6209650;23;20086;-72
2022/01/08 00:37:34;;;;;;;0.00;0.00;;;4.10;99.90;;;;;;6210562;23;20024;-71
2022/01/08 00:40:00;;;;;;;0.00;0.00;;;4.10;99.90;;;;;;6209944;23;20000;-70
2022/01/08 00:42:26;;;;;;;;;;;4.10;99.90;;;;;;6211220;23;20028;-72
2022/01/08 00:44:52;;;;;;;0.00;0.00;;;4.20;99.90;;;;;;6211559;23;19911;-70
2022/01/08 00:47:17;;;;;;;0.00;0.00;;;4.10;99.90;;;;;;6208248;23;20005;-70
2022/01/08 00:49:43;;;;;;;0.00;0.00;;;4.00;99.90;;;;;;6211746;23;20054;-72
2022/01/08 00:52:09;;;;;;;0.00;0.00;;;4.10;99.90;;;;;;6211615;23;20000;-72
2022/01/08 00:54:36;;;;;;;0.00;0.00;;;4.30;99.90;;;;;;6210174;23;20007;-72
2022/01/08 00:57:03;;;;;;;0.00;0.00;;;4.30;99.90;;;;;;6212650;23;20332;-71
2022/01/08 00:59:29;;;;;;;0.00;0.00;;;4.40;99.90;;;;;;6210977;23;20009;-71
2022/01/08 01:01:54;;;;;;;0.00;0.00;;;4.60;99.90;;;;;;6211588;23;20022;-70
2022/01/08 01:04:20;;;;;;;0.00;0.00;;;4.70;99.90;;;;;;6212153;23;20015;-71
2022/01/08 01:06:46;;;;;;;0.00;0.00;;;4.80;99.90;;;;;;6210588;23;20421;-70
2022/01/08 01:09:12;;;;;;;0.00;0.00;;;4.60;99.90;;;;;;6211577;23;20477;-70
2022/01/08 01:11:37;;;;;;;0.00;0.00;;;4.60;99.90;;;;;;6210238;23;20103;-69
2022/01/08 01:14:03;;;;;;;0.00;0.00;;;4.60;99.90;;;;;;6210414;23;20012;-70
2022/01/08 01:16:29;;;;;;;0.00;0.00;;;4.60;99.90;;;;;;6211061;23;20004;-69
2022/01/08 01:18:55;;;;;;;0.00;0.00;;;4.40;99.90;;;;;;6211250;23;20421;-71
2022/01/08 01:21:21;;;;;;;0.00;0.00;;;4.40;99.90;;;;;;6211366;23;20043;-71
2022/01/08 01:23:48;;;;;;;0.00;0.00;;;4.40;99.90;;;;;;6212992;23;20004;-71
2022/01/08 01:26:19;;;;;;;0.00;0.00;;;4.50;99.90;;;;;;6211853;23;20085;-72
2022/01/08 01:47:01;;;;;;;0.00;0.00;;;4.60;99.90;;;;;;6209507;23;20009;-71
2022/01/08 01:49:35;;;;;;;0.00;0.00;;;4.60;99.90;;;;;;6209551;23;20072;-72
2022/01/08 01:52:02;;;;;;;0.00;0.00;;;4.50;99.90;;;;;;6210840;23;20020;-72
2022/01/08 01:54:30;;;;;;;0.00;0.00;;;4.40;99.90;;;;;;6209482;23;20001;-71
2022/01/08 01:56:59;;;;;;;0.00;0.00;;;4.50;99.90;;;;;;6210488;23;19992;-71
2022/01/08 01:59:29;;;;;;;0.00;0.00;;;4.60;99.90;;;;;;6209089;23;20027;-72
2022/01/08 02:01:55;;;;;;;0.00;0.00;;;4.60;99.90;;;;;;6210046;23;20000;-72
2022/01/08 02:04:21;;;;;;;0.00;0.00;;;4.50;99.90;;;;;;6210918;23;20089;-71
2022/01/08 02:06:47;;;;;;;0.00;0.00;;;4.40;99.90;;;;;;6209007;23;20342;-71
2022/01/08 02:09:12;;;;;;;0.00;0.00;;;4.50;99.90;;;;;;6210976;23;20038;-71
2022/01/08 02:12:01;;;;;;;0.00;0.00;;;4.60;99.90;;;;;;6211192;23;20055;-72
2022/01/08 02:14:33;;;;;;;0.00;0.00;;;4.60;99.90;;;;;;6193425;23;20051;-71
2022/01/08 02:16:59;;;;;;;0.00;0.00;;;4.70;99.90;;;;;;6213238;23;20124;-71
2022/01/08 02:19:26;;;;;;;0.00;0.00;;;4.80;99.90;;;;;;6206793;23;20437;-70
2022/01/08 02:21:55;;;;;;;0.00;0.00;;;4.80;99.90;;;;;;6211123;23;19996;-72
2022/01/08 02:24:22;;;;;;;0.00;0.00;;;4.80;99.90;;;;;;6209595;23;20087;-72
2022/01/08 02:26:48;;;;;;;0.00;0.00;;;4.90;99.90;;;;;;6210103;23;19997;-70
2022/01/08 02:29:15;;;;;;;0.00;0.00;;;4.80;99.90;;;;;;6211065;23;20011;-70
2022/01/08 02:31:51;;;;;;;0.00;0.00;;;4.80;99.90;;;;;;6211110;23;20003;-71
2022/01/08 02:34:16;;;;;;;0.00;0.00;;;4.80;99.90;;;;;;6209608;23;20002;-71
2022/01/08 02:36:42;;;;;;;0.00;0.00;;;4.80;99.90;;;;;;6211549;23;20025;-71
2022/01/08 02:39:08;;;;;;;0.00;0.00;;;4.80;99.90;;;;;;6210336;23;20026;-71
2022/01/08 02:41:33;;;;;;;0.00;0.00;;;4.80;99.90;;;;;;6210761;23;19996;-71
2022/01/08 02:43:59;;;;;;;0.00;0.00;;;4.90;99.90;;;;;;6211843;23;20008;-71
2022/01/08 02:46:28;;;;;;;0.00;0.00;;;5.00;99.90;;;;;;6209402;23;20005;-70
2022/01/08 02:48:54;;;;;;;0.00;0.00;;;5.20;99.90;;;;;;6212996;23;20263;-70
2022/01/08 02:51:19;;;;;;;0.00;0.00;;;5.30;99.90;;;;;;6212256;23;20004;-73
2022/01/08 02:53:45;;;;;;;0.00;0.00;;;5.30;99.90;;;;;;6212285;23;20012;-70
2022/01/08 02:56:11;;;;;;;0.00;0.00;;;5.40;99.90;;;;;;6212509;23;20020;-71
2022/01/08 02:58:36;;;;;;;0.00;0.00;;;5.50;99.90;;;;;;6211169;23;20001;-72
2022/01/08 03:01:03;;;;;;;0.00;0.00;;;5.50;99.90;;;;;;6210599;23;20000;-72
2022/01/08 03:03:29;;;;;;;0.00;0.00;;;5.60;99.90;;;;;;6212151;23;20317;-70
2022/01/08 03:05:54;;;;;;;0.00;0.00;;;5.60;99.90;;;;;;6209125;23;20082;-71
2022/01/08 03:08:20;;;;;;;0.00;0.00;;;5.50;99.90;;;;;;6210820;23;20001;-71
2022/01/08 03:10:46;;;;;;;0.00;0.00;;;5.50;99.90;;;;;;6209831;23;20005;-72
2022/01/08 03:13:11;;;;;;;0.00;0.00;;;5.60;99.90;;;;;;6212193;23;20366;-71
2022/01/08 03:15:39;;;;;;;0.00;0.00;;;5.60;99.90;;;;;;6213487;23;20051;-71
2022/01/08 03:18:06;;;;;;;0.00;0.00;;;5.70;99.90;;;;;;6213471;23;20962;-72
2022/01/08 03:20:35;;;;;;;0.00;0.00;;;5.80;99.90;;;;;;6212101;23;20008;-70
2022/01/08 03:23:03;;;;;;;0.00;0.00;;;5.90;99.90;;;;;;6215112;23;20008;-70
2022/01/08 03:25:30;;;;;;;0.00;0.00;;;5.90;99.90;;;;;;6215847;23;19996;-71
2022/01/08 03:27:57;;;;;;;0.00;0.00;;;6.00;99.90;;;;;;6213852;23;20003;-71
2022/01/08 03:30:24;;;;;;;0.00;0.00;;;5.80;99.90;;;;;;6214616;23;20004;-72
2022/01/08 03:32:51;;;;;;;0.00;0.00;;;5.80;99.90;;;;;;6211185;23;20004;-70
2022/01/08 03:35:17;;;;;;;0.00;0.00;;;5.90;99.90;;;;;;6212269;23;20016;-71
2022/01/08 03:37:43;;;;;;;0.00;0.00;;;6.00;99.90;;;;;;6212907;23;20432;-71
2022/01/08 03:40:09;;;;;;;0.00;0.00;;;6.00;99.90;;;;;;6211182;23;20007;-72
2022/01/08 03:42:34;;;;;;;0.00;0.00;;;6.20;99.90;;;;;;6212641;23;20550;-72
2022/01/08 03:45:00;;;;;;;0.00;0.00;;;6.20;99.90;;;;;;6210395;23;20056;-70
2022/01/08 03:49:53;;;;;;;0.00;0.00;;;6.10;99.90;;;;;;6212730;23;20559;-72
2022/01/08 03:52:19;;;;;;;0.00;0.00;;;6.20;99.90;;;;;;6209890;23;20011;-71
2022/01/08 03:54:45;;;;;;;0.00;0.00;;;6.30;99.90;;;;;;6183965;23;20312;-72
2022/01/08 03:57:11;;;;;;;0.00;0.00;;;6.40;99.90;;;;;;6211194;23;20005;-70
2022/01/08 03:59:37;;;;;;;0.00;0.00;;;6.40;99.90;;;;;;6210513;23;20036;-70
2022/01/08 04:02:03;;;;;;;0.00;0.00;;;6.50;99.90;;;;;;6211131;23;20012;-71
2022/01/08 04:04:29;;;;;;;0.00;0.00;;;6.40;99.90;;;;;;6211582;23;20050;-70
2022/01/08 04:06:55;;;;;;;0.00;0.00;;;6.40;99.90;;;;;;6210441;23;20059;-70
2022/01/08 04:09:20;;;;;;;0.00;0.00;;;6.50;99.90;;;;;;6212898;23;20337;-70
2022/01/08 04:11:46;;;;;;;0.00;0.00;;;6.60;99.90;;;;;;6211476;23;20432;-71
2022/01/08 04:14:14;;;;;;;0.00;0.00;;;6.60;99.90;;;;;;6211583;23;20000;-71
2022/01/08 04:16:44;;;;;;;0.00;0.00;;;6.70;99.90;;;;;;6213143;23;20007;-71
2022/01/08 04:19:10;;;;;;;0.00;0.00;;;6.80;99.90;;;;;;6210816;23;20074;-71
2022/01/08 04:24:05;;;;;;;0.00;0.00;;;6.90;99.90;;;;;;6212010;23;20040;-71
2022/01/08 04:26:31;;;;;;;0.00;0.00;;;6.80;99.90;;;;;;6210335;23;20283;-70
2022/01/08 04:28:57;;;;;;;0.00;0.00;;;6.80;99.90;;;;;;6211639;23;20715;-72
2022/01/08 04:31:24;;;;;;;0.00;0.00;;;7.00;99.90;;;;;;6211957;23;20005;-71
2022/01/08 04:33:51;;;;;;;0.00;0.00;;;7.10;99.90;;;;;;6210432;23;20004;-71
2022/01/08 04:36:16;;;;;;;0.00;0.00;;;7.30;99.90;;;;;;6211264;23;20021;-70
2022/01/08 04:38:42;;;;;;;0.00;0.00;;;7.50;99.90;;;;;;6211892;23;20000;-71
2022/01/08 04:41:08;;;;;;;0.00;0.00;;;7.60;99.90;;;;;;6209585;23;20005;-71
2022/01/08 04:43:37;;;;;;;0.00;0.00;;;7.70;99.90;;;;;;6211476;23;20357;-72
2022/01/08 04:46:03;;;;;;;0.00;0.00;;;7.80;99.90;;;;;;6210552;23;20001;-70
2022/01/08 04:48:31;;;;;;;0.00;0.00;;;7.80;99.90;;;;;;6211555;23;20100;-72
2022/01/08 04:50:57;;;;;;;0.00;0.00;;;7.80;99.90;;;;;;6210991;23;20019;-72
2022/01/08 04:53:22;;;;;;;0.00;0.00;;;7.90;99.90;;;;;;6212439;23;20021;-73
2022/01/08 04:55:48;;;;;;;0.00;0.00;;;7.90;99.90;;;;;;6213120;23;20072;-72
2022/01/08 04:58:14;;;;;;;0.00;0.00;;;7.90;99.90;;;;;;6212561;23;20048;-71
2022/01/08 05:00:40;;;;;;;0.00;0.00;;;8.00;99.90;;;;;;6211270;23;19996;-71
2022/01/08 05:03:06;;;;;;;0.00;0.00;;;8.00;99.90;;;;;;6211526;23;20020;-72
2022/01/08 05:05:32;;;;;;;0.00;0.00;;;8.10;99.90;;;;;;6211270;23;20028;-70
2022/01/08 05:07:59;;;;;;;0.00;0.00;;;8.00;99.90;;;;;;6210972;23;19993;-70
2022/01/08 05:10:25;;;;;;;0.00;0.00;;;8.00;99.90;;;;;;6213308;23;20008;-71
2022/01/08 05:12:50;;;;;;;0.00;0.00;;;8.00;99.90;;;;;;6211426;23;20314;-71
2022/01/08 05:15:17;;;;;;;0.00;0.00;;;8.00;99.90;;;;;;6213306;23;20001;-71
2022/01/08 05:17:45;;;;;;;0.00;0.00;;;8.00;99.90;;;;;;6212277;23;20004;-71
2022/01/08 05:20:12;;;;;;;0.00;0.00;;;8.00;99.90;;;;;;6210718;23;20005;-71
2022/01/08 05:22:53;;;;;;;0.00;0.00;;;8.00;99.90;;;;;;6212138;23;20012;-72
2022/01/08 05:25:21;;;;;;;0.00;0.00;;;8.00;99.90;;;;;;6212343;23;20028;-71
2022/01/08 05:27:48;;;;;;;0.00;0.00;;;8.00;99.90;;;;;;6210576;23;20001;-72
2022/01/08 05:30:16;;;;;;;0.00;0.00;;;8.10;99.90;;;;;;6211526;23;19996;-73
2022/01/08 05:32:43;;;;;;;0.00;0.00;;;8.00;99.90;;;;;;6208767;23;20004;-71
2022/01/08 05:35:09;;;;;;;0.00;0.00;;;8.00;99.90;;;;;;6211117;23;20037;-72
2022/01/08 05:37:36;;;;;;;0.00;0.00;;;8.00;99.90;;;;;;6211252;23;20001;-72
2022/01/08 05:40:02;;;;;;;0.00;0.00;;;7.90;99.90;;;;;;6210219;23;20376;-71
2022/01/08 05:42:28;;;;;;;0.00;0.00;;;8.00;99.90;;;;;;6211217;23;20001;-71
2022/01/08 05:44:53;;;;;;;0.00;0.00;;;8.00;99.90;;;;;;6211456;23;20043;-72
2022/01/08 05:47:21;;;;;;;0.00;0.00;;;8.00;99.90;;;;;;6209726;23;19997;-71
2022/01/08 05:49:47;;;;;;;0.00;0.00;;;8.00;99.90;;;;;;6210141;23;19997;-71
2022/01/08 05:52:13;;;;;;;0.00;0.00;;;8.00;99.90;;;;;;6211135;23;20432;-71
2022/01/08 05:54:39;;;;;;;0.00;0.00;;;8.00;99.90;;;;;;6210369;23;20079;-71
2022/01/08 05:57:06;;;;;;;0.00;0.00;;;8.00;99.90;;;;;;6211401;23;19997;-72
2022/01/08 05:59:32;;;;;;;0.00;0.00;;;8.00;99.90;;;;;;6211287;23;20361;-72
2022/01/08 06:01:58;;;;;;;0.00;0.00;;;8.10;99.90;;;;;;6210919;23;20000;-71
2022/01/08 06:04:24;;;;;;;0.00;0.00;;;8.10;99.90;;;;;;6210904;23;20012;-73
2022/01/08 06:06:50;;;;;;;0.00;0.00;;;8.10;99.90;;;;;;6209359;23;20035;-71
2022/01/08 06:09:16;;;;;;;0.00;0.00;;;8.00;99.90;;;;;;6211254;23;20000;-71
2022/01/08 06:11:42;;;;;;;0.00;0.00;;;8.10;99.90;;;;;;6211722;23;20058;-72
2022/01/08 06:14:08;;;;;;;0.00;0.00;;;8.00;99.90;;;;;;6208049;23;20035;-72
2022/01/08 06:16:35;;;;;;;0.00;0.00;;;8.10;99.90;;;;;;6211084;23;20031;-72
2022/01/08 06:19:03;;;;;;;0.00;0.00;;;8.10;99.90;;;;;;6211092;23;20375;-72
2022/01/08 06:21:29;;;;;;;0.00;0.00;;;8.10;99.90;;;;;;6210328;23;20001;-72
2022/01/08 06:23:54;;;;;;;0.00;0.00;;;8.10;99.90;;;;;;6209813;23;20380;-72
2022/01/08 06:26:20;;;;;;;0.00;0.00;;;8.10;99.90;;;;;;6210268;23;20055;-71
2022/01/08 06:28:46;;;;;;;0.00;0.00;;;8.20;99.90;;;;;;6211095;23;20080;-73
2022/01/08 06:31:11;;;;;;;0.00;0.00;;;8.20;99.90;;;;;;6210629;23;20021;-72
2022/01/08 06:33:37;;;;;;;0.00;0.00;;;8.30;99.90;;;;;;6209297;23;20540;-72
2022/01/08 06:36:03;;;;;;;0.00;0.00;;;8.30;99.90;;;;;;6210225;23;20449;-72
2022/01/08 06:38:28;;;;;;;0.00;0.00;;;8.30;99.90;;;;;;6209892;23;20023;-73
2022/01/08 06:40:54;;;;;;;0.00;0.00;;;8.30;99.90;;;;;;6209171;23;20004;-71
2022/01/08 06:43:20;;;;;;;0.00;0.00;;;8.20;99.90;;;;;;6210337;23;20013;-71
2022/01/08 06:45:45;;;;;;;0.00;0.00;;;8.20;99.90;;;;;;6209835;23;20013;-72
2022/01/08 06:48:11;;;;;;;0.00;0.00;;;8.30;99.90;;;;;;6208347;23;20409;-72
2022/01/08 06:50:37;;;;;;;0.00;0.00;;;8.40;99.90;;;;;;6210727;23;20140;-71
2022/01/08 06:53:03;;;;;;;0.00;0.00;;;8.40;99.90;;;;;;6210722;23;20373;-71
2022/01/08 06:55:29;;;;;;;0.00;0.00;;;8.50;99.90;;;;;;6213204;23;20016;-72
2022/01/08 06:57:55;;;;;;;0.00;0.00;;;8.60;99.90;;;;;;6212127;23;20016;-71
2022/01/08 07:00:21;;;;;;;0.00;0.00;;;8.60;99.90;;;;;;6208917;23;20118;-71
2022/01/08 07:02:47;;;;;;;0.00;0.00;;;8.60;99.90;;;;;;6212166;23;20008;-71
2022/01/08 07:05:12;;;;;;;0.00;0.00;;;8.60;99.90;;;;;;6212400;23;20007;-72
2022/01/08 07:07:38;;;;;;;0.00;0.00;;;8.60;99.90;;;;;;6209741;23;20001;-73
2022/01/08 07:10:04;;;;;;;0.00;0.00;;;8.70;99.90;;;;;;6209958;23;20029;-71
2022/01/08 07:12:30;;;;;;;0.00;0.00;;;8.70;99.90;;;;;;6207492;23;20349;-71
2022/01/08 07:14:56;;;;;;;0.00;0.00;;;8.70;99.90;;;;;;6209364;23;20001;-73
2022/01/08 07:17:22;;;;;;;0.00;0.00;;;8.80;99.90;;;;;;6209146;23;20007;-72
2022/01/08 07:19:48;;;;;;;0.00;0.00;;;8.80;99.90;;;;;;6208687;23;20000;-71
2022/01/08 07:22:13;;;;;;;0.00;0.00;;;8.80;99.90;;;;;;6210945;23;20312;-71
2022/01/08 07:24:39;;;;;;;0.00;0.00;;;8.90;99.90;;;;;;6210918;23;20004;-73
2022/01/08 07:27:05;;;;;;;0.00;0.00;;;9.00;99.90;;;;;;6209011;23;20472;-71
2022/01/08 07:29:30;;;;;;;0.00;0.00;;;9.00;99.90;;;;;;6210812;23;20008;-71
2022/01/08 07:31:56;;;;;;;0.00;0.00;;;9.00;99.90;;;;;;6210936;23;20076;-74
2022/01/08 07:34:22;;;;;;;0.00;0.00;;;9.00;99.90;;;;;;6209203;23;20011;-71
2022/01/08 07:36:48;;;;;;;0.00;0.00;;;9.00;99.90;;;;;;6210339;23;20104;-72
2022/01/08 07:39:14;;;;;;;0.00;0.00;;;9.00;99.90;;;;;;6210786;23;20001;-71
2022/01/08 07:41:40;;;;;;;0.00;0.00;;;9.00;99.90;;;;;;6210757;23;20491;-71
2022/01/08 07:44:06;;;;;;;0.00;0.00;;;9.00;99.90;;;;;;6210807;23;20032;-72
2022/01/08 07:46:31;;;;;;;;;;;9.00;99.90;;;;;;6211622;23;20091;-71
2022/01/08 07:48:57;;;;;;;0.00;0.00;;;9.00;99.90;;;;;;6214706;23;19899;-71
2022/01/08 07:51:23;;;;;;;0.00;0.00;;;9.10;99.90;;;;;;6215393;23;20035;-72
2022/01/08 07:53:48;;;;;;;0.00;0.00;;;9.00;99.90;;;;;;6213649;23;20424;-73
2022/01/08 07:56:14;;;;;;;0.00;0.00;;;9.00;99.90;;;;;;6217176;23;20000;-72
2022/01/08 07:58:40;;;;;;;0.00;0.00;;;9.10;99.90;;;;;;6216954;23;20007;-72
2022/01/08 08:01:06;;;;;;;0.00;0.00;;;9.10;99.90;;;;;;6212158;23;20000;-73
2022/01/08 08:03:31;;;;;;;0.00;0.00;;;9.10;99.90;;;;;;6213860;23;20009;-71
2022/01/08 08:05:57;;;;;;;0.00;0.00;;;9.10;99.90;;;;;;6212427;23;20447;-72
2022/01/08 08:08:23;;;;;;;0.00;0.00;;;9.10;99.90;;;;;;6213133;23;20143;-71
2022/01/08 08:10:52;;;;;;;0.00;0.00;;;9.20;99.90;;;;;;6213962;23;20000;-72
2022/01/08 08:13:19;;;;;;;0.00;0.00;;;9.20;99.90;;;;;;6211575;23;20376;-71
2022/01/08 08:15:46;;;;;;;0.00;0.00;;;9.20;99.90;;;;;;6212993;23;19996;-71
2022/01/08 08:18:12;;;;;;;0.00;0.00;;;9.20;99.90;;;;;;6211540;23;20019;-72
2022/01/08 08:20:38;;;;;;;0.00;0.00;;;9.30;99.90;;;;;;6209058;23;20004;-73
2022/01/08 08:23:04;;;;;;;0.00;0.00;;;9.30;99.90;;;;;;6212127;23;20388;-72
2022/01/08 08:25:30;;;;;;;0.00;0.00;;;9.40;99.90;;;;;;6213066;23;19996;-71
2022/01/08 08:27:56;;;;;;;0.00;0.00;;;9.50;99.90;;;;;;6212055;23;20425;-72
2022/01/08 08:30:22;;;;;;;0.05;0.05;;;9.50;99.90;;;;;;6212120;23;20123;-72
2022/01/08 08:32:48;;;;;;;;;;;9.60;99.90;;;;;;6208502;23;20012;-71
2022/01/08 08:35:14;;;;;;;0.03;0.03;;;9.50;99.90;;;;;;6211478;23;19912;-72
2022/01/08 08:37:40;;;;;;;0.10;0.10;;;9.50;99.90;;;;;;6212534;23;20444;-71
2022/01/08 08:40:07;;;;;;;;;;;9.50;99.90;;;;;;6210494;23;20031;-70
2022/01/08 08:42:33;;;;;;;0.00;0.00;;;9.50;99.90;;;;;;6210004;23;20333;-73
2022/01/08 08:44:59;;;;;;;0.10;0.10;;;9.60;99.90;;;;;;6210123;23;20008;-72
2022/01/08 08:47:24;;;;;;;0.00;0.00;;;9.50;99.90;;;;;;6209993;23;20081;-71
2022/01/08 08:49:50;;;;;;;0.03;0.03;;;9.50;99.90;;;;;;6211134;23;20015;-73
2022/01/08 08:52:16;;;;;;;0.28;0.28;;;9.50;99.90;;;;;;6211522;23;20001;-71
2022/01/08 08:54:43;;;;;;;0.55;0.40;;;9.50;99.90;;;;;;6210825;23;19997;-72
2022/01/08 08:57:09;;;;;;;0.73;0.40;;;9.50;99.90;;;;;;6211052;23;20082;-71
2022/01/08 08:59:35;;;;;;;;;;;9.50;99.90;;;;;;6209188;23;20055;-72
2022/01/08 09:02:01;;;;;;;0.00;0.00;;;9.50;99.90;;;;;;6210207;23;19907;-72
2022/01/08 09:04:27;;;;;;;0.15;0.15;;;9.50;99.90;;;;;;6210372;23;20380;-74
2022/01/08 09:06:53;;;;;;;0.73;0.50;;;9.50;99.90;;;;;;6210204;23;20376;-74
2022/01/08 09:09:18;;;;;;;0.60;0.43;;;9.50;99.90;;;;;;6209708;23;20384;-73
2022/01/08 09:11:44;;;;;;;0.50;0.35;;;9.50;99.90;;;;;;6209337;23;20024;-75
2022/01/08 09:14:10;;;;;;;0.30;0.20;;;9.50;99.90;;;;;;6208702;23;20007;-78
2022/01/08 09:16:36;;;;;;;0.10;0.10;;;9.50;99.90;;;;;;6211930;23;20005;-74
2022/01/08 09:19:03;;;;;;;;;;;9.50;99.90;;;;;;6212548;23;20069;-74
2022/01/08 09:21:28;;;;;;;0.00;0.00;;;9.50;99.90;;;;;;6211827;23;19969;-75
2022/01/08 09:23:54;;;;;;;0.00;0.00;;;9.50;99.90;;;;;;6210510;23;20322;-75
2022/01/08 09:26:20;;;;;;;0.00;0.00;;;9.50;99.90;;;;;;6212224;23;20011;-76
2022/01/08 09:28:46;;;;;;;0.00;0.00;;;9.60;99.90;;;;;;6211144;23;20063;-75
2022/01/08 09:31:12;;;;;;;0.00;0.00;;;9.60;99.90;;;;;;6210578;23;20000;-76
2022/01/08 09:33:38;;;;;;;0.00;0.00;;;9.60;99.90;;;;;;6211503;23;20001;-76
2022/01/08 09:36:05;;;;;;;0.00;0.00;;;9.60;99.90;;;;;;6209684;23;20024;-73
2022/01/08 09:38:31;;;;;;;0.00;0.00;;;9.60;99.90;;;;;;6210373;23;20001;-74
2022/01/08 09:40:57;;;;;;;0.00;0.00;;;9.70;99.90;;;;;;6210670;23;20055;-75
2022/01/08 09:43:23;;;;;;;0.00;0.00;;;9.70;99.90;;;;;;6210829;23;20055;-74
2022/01/08 09:45:49;;;;;;;0.00;0.00;;;9.70;99.90;;;;;;6210486;23;20067;-74
2022/01/08 09:48:15;;;;;;;;;;;9.70;99.90;;;;;;6211535;23;20051;-76
2022/01/08 09:50:45;;;;;;;0.00;0.00;;;9.80;99.90;;;;;;6211878;23;19899;-74
2022/01/08 09:53:11;;;;;;;0.00;0.00;;;9.80;99.90;;;;;;6211963;23;20023;-75
2022/01/08 09:55:37;;;;;;;0.00;0.00;;;9.80;99.90;;;;;;6212481;23;20170;-74
2022/01/08 09:58:03;;;;;;;0.00;0.00;;;9.80;99.90;;;;;;6213089;23;20031;-76
2022/01/08 10:00:31;;;;;;;;;;;9.80;99.90;;;;;;6211532;23;20012;-75
2022/01/08 10:03:11;;;;;;;;;;;9.80;99.90;;;;;;6213284;23;19908;-76
2022/01/08 10:06:03;;;;;;;0.00;0.00;;;9.90;99.90;;;;;;6212398;23;19938;-74
2022/01/08 10:08:31;;;;;;;0.00;0.00;;;9.90;99.90;;;;;;6207498;23;20314;-76
2022/01/08 10:11:07;;;;;;;0.00;0.00;;;9.90;99.90;;;;;;6212081;23;20058;-76
2022/01/08 10:13:40;;;;;;;0.00;0.00;;;10.00;99.90;;;;;;6210662;23;20406;-76
2022/01/08 10:18:55;;;;;;;0.52;0.22;;;10.10;99.90;;;;;;6211652;23;20344;-75
2022/01/08 10:21:22;;;;;;;1.63;0.60;;;10.10;99.90;;;;;;6210366;23;20072;-75
2022/01/08 10:24:00;;;;;;;0.60;0.30;;;10.20;99.90;;;;;;6212344;23;20012;-77
2022/01/08 10:26:31;;;;;;;0.73;0.30;;;10.20;99.90;;;;;;6210818;23;20004;-76
2022/01/08 10:29:02;;;;;;;0.28;0.28;;;10.20;99.90;;;;;;6212029;23;20357;-76
2022/01/08 10:31:34;;;;;;;0.60;0.28;;;10.20;99.90;;;;;;6211399;23;20401;-77
2022/01/08 10:34:02;;;;;;;0.68;0.20;;;10.30;99.90;;;;;;6210541;23;19997;-76
2022/01/08 10:36:58;;;;;;;0.80;0.50;;;10.30;99.90;;;;;;6212610;23;20016;-76
2022/01/08 10:39:28;;;;;;;0.38;0.30;;;10.30;99.90;;;;;;6210687;23;20073;-76
2022/01/08 10:41:56;;;;;;;0.60;0.30;;;10.30;99.90;;;;;;6211996;23;20047;-76
2022/01/08 10:44:24;;;;;;;0.50;0.22;;;10.30;99.90;;;;;;6211903;23;20009;-76
2022/01/08 10:47:08;;;;;;;1.10;0.38;;;10.30;99.90;;;;;;6210783;23;19993;-75
2022/01/08 10:49:37;;;;;;;0.00;0.00;;;10.30;99.90;;;;;;6212823;23;20051;-76
2022/01/08 10:52:17;;;;;;;0.13;0.10;;;10.30;99.90;;;;;;6212008;23;20421;-76
2022/01/08 10:54:45;;;;;;;1.02;0.40;;;10.20;99.90;;;;;;6210173;23;19997;-75
2022/01/08 10:57:15;;;;;;;1.95;0.52;;;10.30;99.90;;;;;;6210014;23;20371;-76
2022/01/08 10:59:42;;;;;;;0.70;0.47;;;10.30;99.90;;;;;;6210166;23;19997;-76
2022/01/08 11:02:13;;;;;;;0.17;0.17;;;10.30;99.90;;;;;;6211118;23;20000;-76
2022/01/08 11:04:51;;;;;;;0.00;0.00;;;10.20;99.90;;;;;;6211508;23;20015;-75
2022/01/08 11:07:30;;;;;;;0.00;0.00;;;10.20;99.90;;;;;;6210654;23;20008;-76
2022/01/08 11:10:03;;;;;;;0.00;0.00;;;10.30;99.90;;;;;;6211905;23;20005;-75
2022/01/08 11:12:35;;;;;;;0.08;0.08;;;10.30;99.90;;;;;;6210628;23;20008;-76
2022/01/08 11:17:57;;;;;;;0.43;0.22;;;10.40;99.90;;;;;;6212773;23;20322;-76
2022/01/08 11:20:28;;;;;;;0.13;0.13;;;10.30;99.90;;;;;;6209390;23;20173;-76
2022/01/08 11:22:56;;;;;;;0.13;0.13;;;10.40;99.90;;;;;;6210218;23;20015;-76
2022/01/08 11:25:36;;;;;;;0.82;0.30;;;10.40;99.90;;;;;;6210606;23;20368;-77
2022/01/08 11:28:13;;;;;;;0.95;0.57;;;10.40;99.90;;;;;;6203722;23;20074;-76
2022/01/08 11:30:45;;;;;;;0.52;0.20;;;10.40;99.90;;;;;;6210393;23;20028;-78
2022/01/08 11:33:23;;;;;;;0.10;0.00;;;10.40;99.90;;;;;;6211115;23;20001;-77
2022/01/08 11:35:51;;;;;;;0.10;0.10;;;10.40;99.90;;;;;;6212561;23;20023;-77
2022/01/08 11:38:19;;;;;;;0.00;0.00;;;10.40;99.90;;;;;;6212106;23;20309;-76
2022/01/08 11:40:48;;;;;;;0.00;0.00;;;10.40;99.90;;;;;;6211755;23;20007;-77
2022/01/08 11:43:17;;;;;;;0.00;0.00;;;10.40;99.90;;;;;;6212625;23;20059;-75
2022/01/08 11:45:47;;;;;;;0.00;0.00;;;10.40;99.90;;;;;;6215434;23;20001;-71
2022/01/08 11:48:14;;;;;;;0.85;0.30;;;10.50;99.90;;;;;;6216325;23;20476;-73
2022/01/08 11:50:48;;;;;;;0.28;0.20;;;10.50;99.90;;;;;;6213657;23;20012;-74
2022/01/08 11:53:24;;;;;;;0.50;0.50;;;10.40;99.90;;;;;;6211270;23;20000;-75
2022/01/08 11:55:56;;;;;;;1.67;0.40;;;10.40;99.90;;;;;;6212123;23;20001;-74
2022/01/08 11:58:27;;;;;;;1.15;0.52;;;10.40;99.90;;;;;;6211574;23;20056;-75
2022/01/08 12:01:04;;;;;;;0.95;0.30;;;10.40;99.90;;;;;;6209809;23;20012;-74
2022/01/08 12:03:31;;;;;;;0.95;0.32;;;10.40;99.90;;;;;;6211660;23;20008;-75
2022/01/08 12:06:16;;;;;;;0.40;0.30;;;10.50;99.90;;;;;;6212020;23;20043;-75
2022/01/08 12:09:08;;;;;;;1.10;0.30;;;10.50;99.90;;;;;;6212052;23;20016;-75
2022/01/08 12:11:46;;;;;;;0.60;0.60;;;10.60;99.90;;;;;;6210468;23;20013;-71
2022/01/08 12:14:12;;;;;;;1.05;0.50;;;10.50;99.90;;;;;;6210844;23;19997;-70
2022/01/08 12:16:40;;;;;;;0.98;0.30;;;10.60;99.90;;;;;;6211083;23;20047;-70
2022/01/08 12:19:08;;;;;;;1.75;0.60;;;10.70;99.90;;;;;;6210711;23;20098;-69
2022/01/08 12:21:39;;;;;;;1.42;0.80;;;10.70;99.90;;;;;;6211933;23;20031;-73
2022/01/08 12:24:31;;;;;;;1.60;0.50;;;10.70;99.90;;;;;;6211918;23;20008;-69
2022/01/08 12:26:59;;;;;;;2.08;0.68;;;10.90;99.90;;;;;;6206674;23;20004;-71
2022/01/08 12:29:45;;;;;;;3.42;0.68;;;11.30;99.90;;;;;;6209475;23;20389;-71
2022/01/08 12:32:31;;;;;;;3.42;0.80;;;11.40;99.90;;;;;;6210772;23;20005;-71
2022/01/08 12:35:15;;;;;;;2.50;0.88;;;11.50;99.90;;;;;;6212110;23;20408;-72
2022/01/08 12:37:44;;;;;;;6.05;1.33;;;11.60;99.90;;;;;;6210511;23;20001;-71
2022/01/08 12:40:12;;;;;;;4.07;1.30;;;11.50;99.90;;;;;;6206581;23;20004;-73
2022/01/08 12:42:40;;;;;;;2.80;0.80;;;11.50;99.90;;;;;;6209022;23;20035;-72
2022/01/08 12:45:13;;;;;;;3.67;0.90;;;11.50;99.90;;;;;;6209231;23;20004;-72
2022/01/08 12:47:45;;;;;;;1.88;1.10;;;11.50;99.90;;;;;;6207161;23;20091;-76
2022/01/08 12:50:22;;;;;;;6.38;1.50;;;11.60;99.90;;;;;;6209585;23;20028;-72
2022/01/08 12:53:06;;;;;;;4.38;1.35;;;11.50;99.90;;;;;;6210194;23;20028;-73
2022/01/08 12:55:42;;;;;;;4.15;1.40;;;11.40;99.90;;;;;;6209876;23;20001;-70
2022/01/08 12:58:14;;;;;;;3.22;1.13;;;11.40;99.90;;;;;;6209710;23;20004;-72
2022/01/08 13:01:07;;;;;;;1.40;0.70;;;11.40;99.90;;;;;;6209187;23;20079;-73
2022/01/08 13:03:48;;;;;;;4.60;3.47;;;11.50;99.90;;;;;;6182603;23;20028;-71
2022/01/08 13:06:14;;;;;;;3.92;1.50;;;11.40;99.90;;;;;;6181772;23;20009;-75
2022/01/08 13:08:42;;;;;;;3.20;1.25;;;11.40;99.90;;;;;;6210802;23;20429;-72
2022/01/08 13:11:10;;;;;;;3.25;1.27;;;11.30;99.90;;;;;;6210197;23;20282;-73
2022/01/08 13:13:49;;;;;;;2.60;1.30;;;11.30;99.90;;;;;;6207830;23;20392;-72
2022/01/08 13:16:19;;;;;;;5.40;2.17;;;11.40;99.90;;;;;;6210422;23;20078;-72
2022/01/08 13:18:51;;;;;;;14.65;2.58;;;11.40;99.90;;;;;;6207115;23;20850;-71
2022/01/08 13:21:17;;;;;;;2.75;1.20;;;11.40;99.90;;;;;;6205383;23;20008;-72
2022/01/08 13:23:47;;;;;;;0.32;0.30;;;11.40;99.90;;;;;;6210295;23;20107;-71
2022/01/08 13:26:14;;;;;;;14.35;3.50;;;11.40;99.90;;;;;;6206412;23;20016;-71
2022/01/08 13:28:47;;;;;;;17.50;4.05;;;11.30;99.90;;;;;;6206992;23;19997;-73
2022/01/08 13:31:13;;;;;;;15.02;3.63;;;11.30;99.90;;;;;;6206841;23;20014;-73